Time;durP1;ratioP1;P1;durP2;ratioP2;P2;SDS_P1;SDS_P2;PMS_P1;PMS_P2;Temp;Humidity;BMP_temperature;BMP_pressure;BME280_temperature;BME280_humidity;BME280_pressure;Samples;Min_cycle;Max_cycle;Signal;HPM_P1;HPM_P2
2023/12/05 00:00:18;;;;;;;;;68.00;54.00;;;;;-2.13;100.00;99780.78;6309748;20;2857573;-48
2023/12/05 00:02:47;;;;;;;;;52.00;40.00;;;;;-1.95;100.00;99777.13;6278559;20;2864866;-50
2023/12/05 00:05:16;;;;;;;;;75.00;49.00;;;;;-2.30;100.00;99767.78;6280148;20;2887798;-42
2023/12/05 00:07:44;;;;;;;;;57.00;49.00;;;;;-2.29;100.00;99772.16;6276211;20;2502491;-50
2023/12/05 00:10:12;;;;;;;;;66.00;48.00;;;;;-2.43;100.00;99765.25;6276530;20;2500388;-48
2023/12/05 00:12:42;;;;;;;;;53.00;39.67;;;;;-2.24;100.00;99773.00;6280144;20;2871220;-48
2023/12/05 00:15:11;;;;;;;;;60.00;47.00;;;;;-2.29;100.00;99766.91;6307744;20;2866954;-47
2023/12/05 00:17:40;;;;;;;;;69.00;48.00;;;;;-2.28;100.00;99763.41;6279538;20;2855484;-49
2023/12/05 00:20:10;;;;;;;;;52.50;42.00;;;;;-2.40;100.00;99760.88;6273321;20;2502485;-48
2023/12/05 00:22:39;;;;;;;;;48.00;44.00;;;;;-2.40;100.00;99758.22;6277472;20;2864846;-48
2023/12/05 00:25:08;;;;;;;;;71.00;54.50;;;;;-2.50;100.00;99757.44;6280716;20;2863845;-46
2023/12/05 00:27:37;;;;;;;;;66.50;49.00;;;;;-2.38;100.00;99757.34;6277552;20;2879443;-47
2023/12/05 00:30:07;;;;;;;;;49.00;42.50;;;;;-2.46;100.00;99770.53;6277526;20;2875327;-51
2023/12/05 00:32:36;;;;;;;;;68.50;47.00;;;;;-2.41;100.00;99774.91;6277958;20;2874375;-46
2023/12/05 00:35:06;;;;;;;;;67.00;47.00;;;;;-2.32;100.00;99778.31;6279612;20;2858700;-50
2023/12/05 00:37:35;;;;;;;;;57.00;45.00;;;;;-2.48;100.00;99774.06;6279037;20;2877389;-48
2023/12/05 00:40:04;;;;;;;;;57.50;46.00;;;;;-2.28;100.00;99780.03;6276661;20;2883657;-48
2023/12/05 00:42:34;;;;;;;;;56.00;42.50;;;;;-2.33;100.00;99770.47;6275578;20;2874254;-49
2023/12/05 00:45:02;;;;;;;;;62.50;50.00;;;;;-2.45;100.00;99759.16;6275823;20;2495093;-48
2023/12/05 00:47:30;;;;;;;;;59.00;45.00;;;;;-1.95;100.00;99766.59;6276179;20;2495167;-50
2023/12/05 00:49:59;;;;;;;;;48.50;45.00;;;;;-2.24;100.00;99768.63;6276329;20;2500260;-43
2023/12/05 00:52:26;;;;;;;;;51.00;45.00;;;;;-2.23;100.00;99751.09;6277983;20;2500417;-43
2023/12/05 00:54:55;;;;;;;;;68.50;51.50;;;;;-2.47;100.00;99747.78;6278671;20;2865934;-41
2023/12/05 00:57:24;;;;;;;;;77.50;50.50;;;;;-2.05;100.00;99750.06;6278154;20;2875670;-46
2023/12/05 00:59:54;;;;;;;;;56.33;44.33;;;;;-2.07;100.00;99739.53;6276468;20;2872211;-47
2023/12/05 01:02:23;;;;;;;;;74.00;54.00;;;;;-1.81;100.00;99738.41;6307163;20;2503466;-47
2023/12/05 01:04:52;;;;;;;;;63.33;46.67;;;;;-2.11;100.00;99744.84;6277340;20;3599240;-47
2023/12/05 01:07:21;;;;;;;;;71.50;52.00;;;;;-2.14;100.00;99744.88;6277515;20;2865900;-46
2023/12/05 01:09:50;;;;;;;;;57.00;45.00;;;;;-2.40;100.00;99740.69;6276927;20;2749190;-48
2023/12/05 01:12:18;;;;;;;;;67.00;45.50;;;;;-2.26;100.00;99744.09;6303747;20;2500302;-41
2023/12/05 01:14:47;;;;;;;;;68.50;51.00;;;;;-2.00;100.00;99751.75;6274186;20;2870076;-48
2023/12/05 01:17:16;;;;;;;;;48.00;45.33;;;;;-2.35;100.00;99751.19;6276602;20;3564883;-46
2023/12/05 01:19:44;;;;;;;;;51.00;36.00;;;;;-2.23;100.00;99743.19;6271463;20;2506537;-47
2023/12/05 01:22:13;;;;;;;;;72.50;52.00;;;;;-2.24;100.00;99750.22;6277663;20;2866042;-46
2023/12/05 01:24:41;;;;;;;;;55.00;48.50;;;;;-2.31;100.00;99747.66;6276758;20;2508632;-46
2023/12/05 01:27:09;;;;;;;;;67.00;51.50;;;;;-2.26;100.00;99756.38;6272646;20;2508664;-49
2023/12/05 01:29:38;;;;;;;;;69.50;52.00;;;;;-2.26;100.00;99756.38;6277976;20;2860722;-51
2023/12/05 01:32:07;;;;;;;;;67.00;49.00;;;;;-2.06;100.00;99758.81;6278879;20;2836745;-48
2023/12/05 01:34:35;;;;;;;;;61.50;48.50;;;;;-2.13;100.00;99747.50;6274140;20;2500415;-48
2023/12/05 01:37:03;;;;;;;;;72.50;49.00;;;;;-2.18;100.00;99741.41;6274090;20;2488175;-47
2023/12/05 01:39:33;;;;;;;;;59.33;43.00;;;;;-2.28;100.00;99737.97;6277219;20;3655452;-49
2023/12/05 01:42:03;;;;;;;;;74.00;54.00;;;;;-2.30;100.00;99738.88;6307019;20;2887902;-48
2023/12/05 01:44:31;;;;;;;;;75.00;59.00;;;;;-2.37;100.00;99737.16;6272067;20;2500356;-49
2023/12/05 01:47:00;;;;;;;;;71.67;51.67;;;;;-1.87;100.00;99738.47;6275456;20;2864828;-49
2023/12/05 01:49:28;;;;;;;;;72.50;57.00;;;;;-1.46;100.00;99750.31;6305195;20;2500266;-49
2023/12/05 01:52:01;;;;;;;;;70.33;53.33;;;;;-2.12;100.00;99738.72;6273652;20;2883718;-49
2023/12/05 01:54:32;;;;;;;;;66.00;50.50;;;;;-2.10;100.00;99734.31;6304264;20;2500283;-47
2023/12/05 01:57:03;;;;;;;;;70.33;49.00;;;;;-1.92;100.00;99717.47;6276047;20;2879626;-48
2023/12/05 01:59:31;;;;;;;;;76.00;54.00;;;;;-1.71;100.00;99718.09;6302828;20;2492996;-46
2023/12/05 02:02:02;;;;;;;;;86.33;62.33;;;;;-2.12;100.00;99717.66;6274517;20;3647202;-47
2023/12/05 02:04:34;;;;;;;;;80.00;58.00;;;;;-2.16;100.00;99710.69;6308862;20;2885764;-49
2023/12/05 02:07:04;;;;;;;;;73.33;50.33;;;;;-2.29;100.00;99709.94;6308330;20;2887846;-49
2023/12/05 02:09:35;;;;;;;;;81.50;58.00;;;;;-2.32;100.00;99714.34;6306873;20;2884792;-47
2023/12/05 02:12:05;;;;;;;;;67.00;49.00;;;;;-2.31;100.00;99705.59;6277191;20;2883609;-45
2023/12/05 02:14:33;;;;;;;;;70.00;57.00;;;;;-2.17;100.00;99703.69;6272294;20;2500238;-51
2023/12/05 02:17:34;;;;;;;;;70.00;55.00;;;;;-2.16;100.00;99705.41;6272339;20;2495093;-51
2023/12/05 02:20:22;;;;;;;;;75.50;57.50;;;;;-2.13;100.00;99704.50;6272254;20;2859673;-50
2023/12/05 02:23:02;;;;;;;;;72.50;55.00;;;;;-2.14;100.00;99703.66;6270171;20;2500279;-48
2023/12/05 02:25:57;;;;;;;;;122.67;93.33;;;;;-2.37;100.00;99692.47;6277742;20;3707551;-50
2023/12/05 02:28:27;;;;;;;;;84.33;61.00;;;;;-2.26;100.00;99699.41;6277419;20;2892056;-52
2023/12/05 02:30:56;;;;;;;;;79.00;60.00;;;;;-2.49;100.00;99691.72;6309742;20;2760747;-46
2023/12/05 02:33:25;;;;;;;;;84.00;59.00;;;;;-2.44;100.00;99683.78;6311113;20;2884702;-50
2023/12/05 02:36:37;;;;;;;;;68.33;48.00;;;;;-2.45;100.00;99667.16;6278466;20;2885696;-47
2023/12/05 02:40:00;;;;;;;;;72.67;48.67;;;;;-2.37;100.00;99667.09;6309293;20;2888002;-48
2023/12/05 02:42:32;;;;;;;;;74.00;54.00;;;;;-2.36;100.00;99667.94;6311605;20;2878412;-48
2023/12/05 02:45:04;;;;;;;;;81.67;60.33;;;;;-2.50;100.00;99662.78;6279656;20;2884657;-47
2023/12/05 02:47:37;;;;;;;;;77.33;51.00;;;;;-2.25;100.00;99651.16;6310777;20;2888884;-48
2023/12/05 02:50:08;;;;;;;;;73.67;50.33;;;;;-2.36;100.00;99647.78;6305853;20;2892160;-46
2023/12/05 02:52:37;;;;;;;;;71.33;54.67;;;;;-2.05;100.00;99645.72;6308956;20;3605524;-50
2023/12/05 02:55:07;;;;;;;;;85.00;63.00;;;;;-1.80;100.00;99640.16;6277210;20;2900304;-46
2023/12/05 02:57:37;;;;;;;;;85.67;66.00;;;;;-1.50;100.00;99622.22;6308207;20;2885947;-50
2023/12/05 03:00:08;;;;;;;;;79.67;58.00;;;;;-2.00;100.00;99606.19;6305877;20;2881566;-47
2023/12/05 03:02:38;;;;;;;;;92.00;65.67;;;;;-1.89;100.00;99593.78;6310153;20;3665938;-47
2023/12/05 03:05:08;;;;;;;;;83.00;62.00;;;;;-1.75;100.00;99593.59;6312753;20;2892080;-46
2023/12/05 03:07:38;;;;;;;;;71.00;49.67;;;;;-2.00;100.00;99593.06;6313246;20;2897275;-49
2023/12/05 03:10:07;;;;;;;;;82.50;62.00;;;;;-1.94;100.00;99586.84;6311558;20;2883647;-46
2023/12/05 03:12:37;;;;;;;;;77.00;57.50;;;;;-2.01;100.00;99575.50;6281718;20;2877392;-47
2023/12/05 03:15:08;;;;;;;;;85.00;60.00;;;;;-1.89;100.00;99579.75;6277937;20;2898344;-47
2023/12/05 03:17:36;;;;;;;;;81.50;61.50;;;;;-1.87;100.00;99580.59;6305190;20;2500504;-48
2023/12/05 03:20:07;;;;;;;;;82.33;60.00;;;;;-1.83;100.00;99593.69;6279037;20;2894230;-52
2023/12/05 03:22:36;;;;;;;;;77.00;55.00;;;;;-2.16;100.00;99599.34;6313508;20;2880562;-50
2023/12/05 03:25:06;;;;;;;;;78.00;57.50;;;;;-2.08;100.00;99606.28;6277426;20;2888882;-50
2023/12/05 03:27:36;;;;;;;;;77.50;57.00;;;;;-2.01;100.00;99609.69;6271733;20;2500561;-50
2023/12/05 03:30:07;;;;;;;;;78.00;60.67;;;;;-1.88;100.00;99597.28;6276141;20;2883698;-51
2023/12/05 03:32:36;;;;;;;;;86.33;63.00;;;;;-1.78;100.00;99593.63;6310959;20;2887823;-51
2023/12/05 03:35:06;;;;;;;;;72.50;56.00;;;;;-1.88;100.00;99611.28;6312346;20;2877403;-52
2023/12/05 03:37:35;;;;;;;;;79.00;57.00;;;;;-1.83;100.00;99608.63;6281897;20;2878583;-48
2023/12/05 03:40:06;;;;;;;;;75.50;54.00;;;;;-1.83;100.00;99609.47;6278736;20;2883788;-48
2023/12/05 03:42:36;;;;;;;;;74.33;46.67;;;;;-1.79;100.00;99605.03;6276790;20;3646145;-50
2023/12/05 03:45:06;;;;;;;;;82.67;57.67;;;;;-1.84;100.00;99591.97;6313321;20;2882986;-46
2023/12/05 03:47:36;;;;;;;;;67.00;54.00;;;;;-1.73;100.00;99599.72;6312353;20;2862852;-47
2023/12/05 03:50:06;;;;;;;;;52.00;35.67;;;;;-1.79;100.00;99599.78;6279367;20;2888885;-50
2023/12/05 03:52:36;;;;;;;;;200.25;151.50;;;;;-1.60;100.00;99595.16;6312965;20;4486728;-46
2023/12/05 03:55:06;;;;;;;;;147.00;107.00;;;;;-1.52;100.00;99600.31;6275759;20;3723427;-47
2023/12/05 03:57:38;;;;;;;;;183.25;141.00;;;;;-1.52;100.00;99595.06;6280519;20;3704538;-48
2023/12/05 04:00:10;;;;;;;;;106.67;75.00;;;;;-1.61;100.00;99591.63;6276635;20;3674280;-50
2023/12/05 04:02:40;;;;;;;;;330.67;254.67;;;;;-1.80;100.00;99587.50;6276946;20;3720156;-48
2023/12/05 04:05:13;;;;;;;;;479.33;388.67;;;;;-1.49;100.00;99592.38;6281011;20;3757536;-49
2023/12/05 04:07:43;;;;;;;;;106.33;72.67;;;;;-1.50;100.00;99590.59;6278748;20;3668001;-42
2023/12/05 04:10:13;;;;;;;;;104.00;75.67;;;;;-1.82;100.00;99600.72;6310952;20;3665868;-42
2023/12/05 04:12:43;;;;;;;;;90.00;63.67;;;;;-2.01;100.00;99594.78;6311890;20;2897302;-42
2023/12/05 04:15:13;;;;;;;;;80.00;60.33;;;;;-1.94;100.00;99594.72;6308444;20;2894142;-42
2023/12/05 04:17:42;;;;;;;;;73.00;58.00;;;;;-1.85;100.00;99584.94;6310860;20;2863850;-44
2023/12/05 04:20:13;;;;;;;;;89.33;70.00;;;;;-1.78;100.00;99569.94;6278919;20;2887940;-41
2023/12/05 04:22:43;;;;;;;;;87.33;65.67;;;;;-1.73;100.00;99570.75;6306870;20;3649306;-42
2023/12/05 04:25:11;;;;;;;;;89.00;67.00;;;;;-1.81;100.00;99560.34;6305209;20;2500316;-48
2023/12/05 04:27:40;;;;;;;;;78.00;60.00;;;;;-1.78;100.00;99548.91;6280029;20;2875409;-48
2023/12/05 04:30:11;;;;;;;;;59.67;48.00;;;;;-1.80;100.00;99541.00;6278057;20;2860764;-52
2023/12/05 04:32:41;;;;;;;;;85.00;60.50;;;;;-1.87;100.00;99538.50;6311820;20;2892053;-50
2023/12/05 04:35:09;;;;;;;;;57.00;48.00;;;;;-1.83;100.00;99541.06;6274733;20;2498163;-49
2023/12/05 04:37:39;;;;;;;;;101.00;73.67;;;;;-1.63;100.00;99548.69;6279361;20;3669030;-47
2023/12/05 04:40:10;;;;;;;;;84.33;60.00;;;;;-1.67;100.00;99546.97;6304743;20;3658602;-49
2023/12/05 04:42:39;;;;;;;;;64.50;49.00;;;;;-1.71;100.00;99547.94;6307180;20;2874213;-46
2023/12/05 04:45:09;;;;;;;;;117.00;90.00;;;;;-1.75;100.00;99543.59;6278738;20;3688843;-48
2023/12/05 04:47:39;;;;;;;;;82.67;58.67;;;;;-1.44;100.00;99554.53;6275394;20;2881552;-47
2023/12/05 04:50:09;;;;;;;;;78.00;57.67;;;;;-1.42;100.00;99541.34;6309548;20;3631647;-49
2023/12/05 04:52:40;;;;;;;;;76.33;60.33;;;;;-1.26;100.00;99534.97;6305179;20;2894252;-45
2023/12/05 04:55:09;;;;;;;;;78.00;61.00;;;;;-1.56;100.00;99529.25;6310842;20;2881622;-48
2023/12/05 04:57:39;;;;;;;;;57.33;42.00;;;;;-1.67;100.00;99527.69;6307086;20;2895196;-50
2023/12/05 05:00:11;;;;;;;;;62.00;54.00;;;;;-1.67;100.00;99520.66;6308938;20;2862805;-49
2023/12/05 05:02:41;;;;;;;;;78.67;58.67;;;;;-1.50;100.00;99514.25;6275074;20;2888788;-48
2023/12/05 05:05:13;;;;;;;;;52.50;42.50;;;;;-1.52;100.00;99510.81;6309984;20;2868987;-46
2023/12/05 05:07:41;;;;;;;;;69.00;50.50;;;;;-1.64;100.00;99511.84;6276562;20;2497242;-46
2023/12/05 05:10:11;;;;;;;;;63.67;48.33;;;;;-1.51;100.00;99520.44;6277926;20;2892041;-46
2023/12/05 05:12:40;;;;;;;;;67.50;53.00;;;;;-1.53;100.00;99532.75;6310404;20;2859841;-49
2023/12/05 05:15:09;;;;;;;;;73.00;56.00;;;;;-1.74;100.00;99534.78;6274184;20;2869225;-50
2023/12/05 05:17:37;;;;;;;;;63.50;52.00;;;;;-1.57;100.00;99538.06;6274436;20;2498248;-49
2023/12/05 05:20:09;;;;;;;;;65.33;49.33;;;;;-1.55;100.00;99535.41;6275334;20;2866014;-47
2023/12/05 05:22:38;;;;;;;;;78.50;57.50;;;;;-1.74;100.00;99537.41;6308636;20;2887821;-46
2023/12/05 05:25:08;;;;;;;;;74.33;57.00;;;;;-1.43;100.00;99535.22;6274346;20;2887843;-47
2023/12/05 05:27:38;;;;;;;;;83.67;61.00;;;;;-1.59;100.00;99545.09;6309504;20;2896230;-45
2023/12/05 05:30:09;;;;;;;;;67.00;53.50;;;;;-1.45;100.00;99551.94;6303796;20;2499375;-47
2023/12/05 05:32:37;;;;;;;;;67.00;52.00;;;;;-1.47;100.00;99548.47;6275800;20;2499294;-47
2023/12/05 05:35:07;;;;;;;;;65.00;48.00;;;;;-1.59;100.00;99550.38;6276234;20;2873226;-48
2023/12/05 05:37:36;;;;;;;;;75.50;56.00;;;;;-1.27;100.00;99546.38;6276033;20;2893002;-46
2023/12/05 05:40:07;;;;;;;;;68.50;50.50;;;;;-1.54;100.00;99550.31;6274302;20;2869156;-48
2023/12/05 05:42:35;;;;;;;;;64.00;52.50;;;;;-1.17;100.00;99541.84;6271603;20;2495065;-46
2023/12/05 05:45:05;;;;;;;;;75.50;57.50;;;;;-1.51;100.00;99547.63;6278128;20;2880464;-46
2023/12/05 05:47:35;;;;;;;;;78.00;54.67;;;;;-1.38;100.00;99549.19;6275626;20;2880488;-47
2023/12/05 05:50:06;;;;;;;;;93.00;67.67;;;;;-1.57;100.00;99555.63;6306689;20;3659623;-47
2023/12/05 05:52:36;;;;;;;;;219.25;168.50;;;;;-1.27;100.00;99546.38;6309618;20;4479383;-46
2023/12/05 05:55:07;;;;;;;;;110.33;78.33;;;;;-1.30;100.00;99540.28;6276266;20;3692961;-46
2023/12/05 05:57:37;;;;;;;;;114.00;87.33;;;;;-1.15;100.00;99540.06;6276911;20;3692989;-47
2023/12/05 06:00:08;;;;;;;;;124.67;99.00;;;;;-1.42;100.00;99536.06;6276151;20;3700469;-47
2023/12/05 06:02:37;;;;;;;;;83.50;64.00;;;;;-1.47;100.00;99536.16;6275529;20;2880550;-51
2023/12/05 06:05:07;;;;;;;;;79.33;61.33;;;;;-1.39;100.00;99533.41;6280120;20;2887833;-42
2023/12/05 06:07:37;;;;;;;;;83.00;60.50;;;;;-1.16;100.00;99546.19;6313150;20;2894060;-43
2023/12/05 06:10:06;;;;;;;;;73.00;52.00;;;;;-1.29;100.00;99545.56;6279413;20;2500276;-45
2023/12/05 06:12:35;;;;;;;;;69.50;57.00;;;;;-1.28;100.00;99544.66;6281218;20;2499341;-43
2023/12/05 06:15:05;;;;;;;;;76.00;57.00;;;;;-1.17;100.00;99547.09;6283506;20;2876301;-43
2023/12/05 06:17:34;;;;;;;;;84.00;64.00;;;;;-1.13;100.00;99544.41;6313274;20;2892026;-44
2023/12/05 06:20:06;;;;;;;;;81.00;62.67;;;;;-1.35;100.00;99543.00;6278775;20;3625762;-41
2023/12/05 06:22:34;;;;;;;;;49.50;40.50;;;;;-1.18;100.00;99545.38;6309890;20;2496097;-42
2023/12/05 06:25:05;;;;;;;;;77.33;60.67;;;;;-1.29;100.00;99548.19;6283738;20;2865058;-45
2023/12/05 06:27:35;;;;;;;;;84.00;60.33;;;;;-1.36;100.00;99551.81;6313195;20;2899367;-50
2023/12/05 06:30:06;;;;;;;;;79.33;56.00;;;;;-0.97;100.00;99558.19;6313958;20;2884723;-46
2023/12/05 06:32:48;;;;;;;;;73.00;55.00;;;;;-1.33;100.00;99555.25;6313254;20;2874334;-47
2023/12/05 06:35:18;;;;;;;;;88.33;64.00;;;;;-1.34;100.00;99550.03;6282271;20;2890040;-47
2023/12/05 06:37:46;;;;;;;;;77.00;58.50;;;;;-1.19;100.00;99554.16;6308486;20;2500322;-49
2023/12/05 06:40:15;;;;;;;;;70.67;52.00;;;;;-1.32;100.00;99556.09;6279635;20;2892111;-46
2023/12/05 06:42:45;;;;;;;;;78.00;63.00;;;;;-1.29;100.00;99558.72;6313605;20;2885696;-46
2023/12/05 06:45:13;;;;;;;;;82.00;60.00;;;;;-1.09;100.00;99554.88;6278662;20;2500269;-45
2023/12/05 06:47:43;;;;;;;;;85.67;57.67;;;;;-1.24;100.00;99556.84;6277624;20;2895270;-45
2023/12/05 06:50:12;;;;;;;;;75.50;59.00;;;;;-1.12;100.00;99561.06;6311471;20;2872173;-47
2023/12/05 06:52:42;;;;;;;;;83.67;59.33;;;;;-1.15;100.00;99567.25;6281746;20;2892007;-47
2023/12/05 06:55:11;;;;;;;;;54.50;45.00;;;;;-0.97;100.00;99568.72;6314123;20;2873188;-46
2023/12/05 06:57:41;;;;;;;;;76.00;55.00;;;;;-1.25;100.00;99560.41;6281837;20;2879595;-42
2023/12/05 07:00:13;;;;;;;;;79.33;54.00;;;;;-1.14;100.00;99565.50;6307931;20;2894164;-42
2023/12/05 07:02:42;;;;;;;;;81.00;59.50;;;;;-0.90;100.00;99564.22;6313035;20;2888856;-41
2023/12/05 07:05:11;;;;;;;;;76.00;58.00;;;;;-1.06;100.00;99570.63;6279107;20;2489942;-43
2023/12/05 07:07:41;;;;;;;;;77.33;58.00;;;;;-1.03;100.00;99562.69;6282572;20;2897123;-47
2023/12/05 07:10:10;;;;;;;;;81.33;59.00;;;;;-0.99;100.00;99561.75;6308150;20;2876340;-50
2023/12/05 07:12:40;;;;;;;;;77.33;57.00;;;;;-1.21;100.00;99555.94;6311274;20;2878875;-52
2023/12/05 07:15:09;;;;;;;;;66.50;55.50;;;;;-1.23;100.00;99553.34;6306279;20;2500746;-49
2023/12/05 07:17:38;;;;;;;;;74.50;53.00;;;;;-1.11;100.00;99557.53;6280567;20;2873208;-48
2023/12/05 07:20:09;;;;;;;;;81.50;64.00;;;;;-1.46;100.00;99551.06;6279495;20;2880524;-43
2023/12/05 07:22:38;;;;;;;;;76.00;54.50;;;;;-1.39;100.00;99551.84;6276380;20;2487831;-41
2023/12/05 07:25:08;;;;;;;;;79.00;61.00;;;;;-1.38;100.00;99556.22;6281055;20;2883672;-46
2023/12/05 07:27:39;;;;;;;;;91.00;69.00;;;;;-1.46;100.00;99547.56;6311806;20;3634679;-45
2023/12/05 07:30:10;;;;;;;;;79.67;60.33;;;;;-1.29;100.00;99558.72;6308735;20;3640900;-43
2023/12/05 07:32:39;;;;;;;;;89.67;64.00;;;;;-1.20;100.00;99548.03;6312936;20;2901447;-46
2023/12/05 07:35:09;;;;;;;;;91.67;64.67;;;;;-1.22;100.00;99547.16;6300791;20;3649267;-45
2023/12/05 07:37:39;;;;;;;;;96.33;70.67;;;;;-1.07;100.00;99550.47;6313139;20;3668000;-43
2023/12/05 07:40:10;;;;;;;;;209.33;163.67;;;;;-0.49;100.00;99559.97;6276670;20;3711753;-44
2023/12/05 07:42:40;;;;;;;;;83.67;64.00;;;;;-1.05;100.00;99556.56;6281276;20;3625400;-43
2023/12/05 07:45:10;;;;;;;;;107.33;74.67;;;;;-1.19;100.00;99560.28;6281126;20;3677373;-44
2023/12/05 07:47:43;;;;;;;;;79.33;59.67;;;;;-0.99;100.00;99565.25;6312551;20;3632637;-43
2023/12/05 07:50:13;;;;;;;;;100.67;75.67;;;;;-1.00;100.00;99574.06;6307109;20;3670036;-44
2023/12/05 07:52:47;;;;;;;;;105.33;84.00;;;;;-1.12;100.00;99580.38;6308878;20;3674222;-45
2023/12/05 07:55:18;;;;;;;;;81.33;60.00;;;;;-0.97;100.00;99578.41;6278051;20;2892019;-43
2023/12/05 07:57:50;;;;;;;;;257.33;184.00;;;;;-0.55;100.00;99578.56;6311721;20;4347138;-43
2023/12/05 08:00:20;;;;;;;;;106.67;74.00;;;;;-0.59;100.00;99582.13;6307063;20;3701353;-46
2023/12/05 08:02:50;;;;;;;;;117.00;89.67;;;;;-0.81;100.00;99582.53;6275910;20;3700698;-41
2023/12/05 08:05:20;;;;;;;;;100.00;69.67;;;;;-0.89;100.00;99585.28;6273908;20;3661172;-43
2023/12/05 08:07:50;;;;;;;;;136.00;104.00;;;;;-0.86;100.00;99568.53;6309989;20;3722353;-44
2023/12/05 08:10:20;;;;;;;;;95.33;70.67;;;;;-0.73;100.00;99577.97;6273880;20;3651347;-43
2023/12/05 08:12:50;;;;;;;;;82.33;59.67;;;;;-0.99;100.00;99567.88;6306719;20;2899265;-42
2023/12/05 08:15:20;;;;;;;;;99.33;67.67;;;;;-1.05;100.00;99570.63;6310956;20;3670065;-43
2023/12/05 08:17:51;;;;;;;;;105.67;85.33;;;;;-0.83;100.00;99573.75;6275319;20;3671108;-52
2023/12/05 08:20:21;;;;;;;;;125.67;100.67;;;;;-0.67;100.00;99577.84;6309111;20;3704510;-49
2023/12/05 08:22:50;;;;;;;;;93.33;70.00;;;;;-0.96;100.00;99572.22;6279659;20;3652366;-53
2023/12/05 08:25:20;;;;;;;;;92.33;67.00;;;;;-0.58;100.00;99571.56;6309187;20;3654444;-42
2023/12/05 08:27:49;;;;;;;;;71.00;57.00;;;;;-0.49;100.00;99568.75;6307304;20;2871151;-44
2023/12/05 08:30:19;;;;;;;;;75.00;55.00;;;;;-0.37;100.00;99567.66;6276025;20;2881575;-45
2023/12/05 08:32:49;;;;;;;;;561.33;328.33;;;;;-0.07;100.00;99575.88;6309618;20;3729473;-43
2023/12/05 08:35:19;;;;;;;;;83.33;62.33;;;;;-0.02;100.00;99568.72;6278097;20;3649249;-49
2023/12/05 08:37:50;;;;;;;;;100.33;72.33;;;;;-0.12;100.00;99567.19;6311914;20;3678374;-46
2023/12/05 08:40:19;;;;;;;;;100.67;73.33;;;;;-0.24;100.00;99574.44;6274855;20;3670125;-49
2023/12/05 08:42:49;;;;;;;;;106.33;82.00;;;;;0.02;100.00;99573.03;6275759;20;3690023;-48
2023/12/05 08:45:19;;;;;;;;;95.00;72.33;;;;;-0.05;100.00;99576.72;6278297;20;2892039;-48
2023/12/05 08:47:53;;;;;;;;;94.67;70.00;;;;;-0.38;100.00;99565.91;6310098;20;3655570;-48
2023/12/05 08:50:24;;;;;;;;;83.00;60.67;;;;;-0.42;100.00;99566.88;6277904;20;2894240;-52
2023/12/05 08:52:54;;;;;;;;;79.33;60.67;;;;;-0.20;100.00;99569.09;6311796;20;3639921;-52
2023/12/05 08:55:22;;;;;;;;;64.00;54.00;;;;;-0.32;100.00;99568.41;6309390;20;2500304;-53
2023/12/05 08:57:52;;;;;;;;;93.33;66.00;;;;;-0.37;100.00;99574.69;6280268;20;3658708;-53
2023/12/05 09:00:22;;;;;;;;;80.33;60.67;;;;;-0.38;100.00;99579.09;6311543;20;3638849;-50
2023/12/05 09:02:54;;;;;;;;;78.00;57.33;;;;;-0.17;100.00;99575.19;6309862;20;2880578;-51
2023/12/05 09:05:24;;;;;;;;;80.67;62.33;;;;;-0.22;100.00;99564.72;6311533;20;2885690;-48
2023/12/05 09:07:53;;;;;;;;;80.33;57.00;;;;;-0.13;100.00;99560.13;6310968;20;2889953;-43
2023/12/05 09:10:23;;;;;;;;;80.33;60.00;;;;;-0.35;100.00;99567.63;6306938;20;2889871;-48
2023/12/05 09:12:51;;;;;;;;;61.00;53.50;;;;;-0.51;100.00;99556.50;6310868;20;2500290;-42
2023/12/05 09:15:20;;;;;;;;;67.00;54.00;;;;;-0.39;100.00;99558.03;6275466;20;2500298;-50
2023/12/05 09:17:51;;;;;;;;;85.33;62.00;;;;;-0.48;100.00;99559.94;6282412;20;3650271;-50
2023/12/05 09:20:21;;;;;;;;;75.67;59.67;;;;;-0.41;100.00;99550.16;6308189;20;2871143;-51
2023/12/05 09:22:52;;;;;;;;;73.67;58.67;;;;;-0.30;100.00;99548.16;6311852;20;2879847;-50
2023/12/05 09:25:29;;;;;;;;;70.00;55.50;;;;;-0.05;100.00;99552.97;6310333;20;2862925;-49
2023/12/05 09:27:59;;;;;;;;;81.00;57.33;;;;;0.03;100.00;99550.13;6280732;20;2897319;-51
2023/12/05 09:30:28;;;;;;;;;75.00;54.50;;;;;-0.07;100.00;99549.47;6310843;20;2877402;-50
2023/12/05 09:32:57;;;;;;;;;42.67;28.67;;;;;0.10;100.00;99555.25;6280592;20;3579446;-47
2023/12/05 09:35:27;;;;;;;;;101.00;74.67;;;;;0.19;100.00;99547.16;6312050;20;3682636;-47
2023/12/05 09:37:57;;;;;;;;;88.33;68.00;;;;;-0.05;100.00;99548.56;6278988;20;3637227;-51
2023/12/05 09:40:27;;;;;;;;;229.00;179.25;;;;;0.15;100.00;99550.75;6312039;20;4461669;-51
2023/12/05 09:43:01;;;;;;;;;96.33;72.00;;;;;0.29;100.00;99545.19;6315834;20;3656541;-49
2023/12/05 09:45:43;;;;;;;;;74.00;58.33;;;;;0.02;100.00;99546.63;6314693;20;2879544;-50
2023/12/05 09:48:19;;;;;;;;;73.33;57.00;;;;;-0.11;100.00;99538.09;6316316;20;2887844;-48
2023/12/05 09:50:49;;;;;;;;;81.00;59.33;;;;;0.02;100.00;99514.09;6312452;20;2900308;-50
2023/12/05 09:53:19;;;;;;;;;91.33;69.67;;;;;-0.19;100.00;99523.34;6314942;20;3650386;-47
2023/12/05 09:55:48;;;;;;;;;77.00;54.50;;;;;-0.35;100.00;99523.63;6315133;20;2888831;-46
2023/12/05 09:58:19;;;;;;;;;72.00;56.00;;;;;-0.19;100.00;99525.97;6280974;20;2875390;-53
2023/12/05 10:00:51;;;;;;;;;64.00;49.00;;;;;0.00;100.00;99522.06;6280067;20;2874354;-52
2023/12/05 10:03:20;;;;;;;;;69.00;56.50;;;;;0.12;100.00;99523.56;6280343;20;2500341;-47
2023/12/05 10:05:50;;;;;;;;;78.00;59.50;;;;;0.01;100.00;99525.56;6282031;20;2879456;-50
2023/12/05 10:08:20;;;;;;;;;71.50;55.00;;;;;0.28;100.00;99518.81;6283948;20;2872223;-51
2023/12/05 10:10:54;;;;;;;;;82.33;60.67;;;;;0.00;100.00;99516.78;6280205;20;3642990;-51
2023/12/05 10:13:24;;;;;;;;;80.33;57.33;;;;;0.29;100.00;99504.69;6314984;20;3647105;-48
2023/12/05 10:15:55;;;;;;;;;84.00;58.00;;;;;-0.03;100.00;99498.34;6313897;20;3649274;-49
2023/12/05 10:18:27;;;;;;;;;71.00;55.33;;;;;-0.33;100.00;99490.19;6314331;20;2874324;-51
2023/12/05 10:20:58;;;;;;;;;85.33;64.33;;;;;-0.26;100.00;99490.97;6312114;20;3645170;-47
2023/12/05 10:23:28;;;;;;;;;92.33;66.33;;;;;0.02;100.00;99495.63;6315445;20;3645174;-48
2023/12/05 10:25:58;;;;;;;;;74.67;58.67;;;;;0.12;100.00;99479.56;6315471;20;2886858;-49
2023/12/05 10:28:28;;;;;;;;;74.67;51.67;;;;;0.00;100.00;99482.50;6314843;20;2874327;-47
2023/12/05 10:30:57;;;;;;;;;70.00;55.00;;;;;0.09;100.00;99491.97;6312139;20;2860682;-47
2023/12/05 10:33:27;;;;;;;;;78.67;58.33;;;;;0.09;100.00;99486.69;6284864;20;3643034;-48
2023/12/05 10:35:56;;;;;;;;;75.00;61.00;;;;;-0.18;100.00;99480.25;6315894;20;2741959;-49
2023/12/05 10:38:26;;;;;;;;;70.00;53.00;;;;;0.07;100.00;99481.44;6315710;20;2890488;-51
2023/12/05 10:40:59;;;;;;;;;78.00;59.00;;;;;-0.22;100.00;99482.91;6312434;20;2878528;-47
2023/12/05 10:43:29;;;;;;;;;77.00;59.00;;;;;0.00;100.00;99477.22;6315481;20;2870083;-45
2023/12/05 10:46:03;;;;;;;;;85.00;58.67;;;;;-0.03;100.00;99471.97;6280896;20;3642546;-44
2023/12/05 10:48:33;;;;;;;;;77.33;57.67;;;;;0.08;100.00;99469.09;6314863;20;3647288;-49
2023/12/05 10:51:04;;;;;;;;;78.00;60.00;;;;;-0.19;100.00;99470.56;6309707;20;2882698;-46
2023/12/05 10:53:37;;;;;;;;;65.00;49.50;;;;;-0.12;100.00;99477.47;6313394;20;2870070;-49
2023/12/05 10:56:18;;;;;;;;;75.00;59.50;;;;;0.13;100.00;99478.66;6281163;20;2877362;-50
2023/12/05 10:58:48;;;;;;;;;78.33;57.67;;;;;-0.07;100.00;99475.59;6280062;20;3654413;-47
2023/12/05 11:01:18;;;;;;;;;80.33;63.67;;;;;-0.11;100.00;99468.63;6314842;20;2883594;-48
2023/12/05 11:03:51;;;;;;;;;80.67;61.67;;;;;-0.06;100.00;99474.69;6313740;20;2877509;-49
2023/12/05 11:06:22;;;;;;;;;72.00;57.00;;;;;0.02;100.00;99464.81;6311538;20;2876406;-47
2023/12/05 11:08:52;;;;;;;;;84.33;63.33;;;;;0.04;100.00;99467.44;6279363;20;3649260;-47